createdAt,value
2023-03-30T00:02:22.086Z,8.13
2023-03-30T00:05:02.145Z,6.70
2023-03-30T00:07:30.250Z,5.53
2023-03-30T00:10:02.927Z,7.22
2023-03-30T00:12:33.170Z,9.88
2023-03-30T00:15:00.981Z,5.28
2023-03-30T00:17:33.787Z,5.00
2023-03-30T00:20:06.376Z,4.65
2023-03-30T00:22:40.162Z,12.32
2023-03-30T00:25:15.511Z,6.50
2023-03-30T00:27:48.336Z,4.28
2023-03-30T00:30:18.744Z,10.45
2023-03-30T00:32:48.336Z,3.58
2023-03-30T00:35:16.188Z,8.57
2023-03-30T00:37:45.768Z,6.72
2023-03-30T00:40:19.106Z,7.60
2023-03-30T00:42:48.487Z,6.22
2023-03-30T00:45:30.316Z,8.70
2023-03-30T00:48:12.636Z,8.43
2023-03-30T00:50:43.951Z,4.80
2023-03-30T00:53:17.340Z,6.88
2023-03-30T00:55:47.390Z,8.52
2023-03-30T00:58:17.017Z,5.93
2023-03-30T01:00:47.328Z,4.53
2023-03-30T01:03:21.308Z,5.75
2023-03-30T01:05:50.443Z,8.93
2023-03-30T01:08:20.081Z,10.30
2023-03-30T01:10:48.156Z,4.13
2023-03-30T01:13:16.763Z,5.35
2023-03-30T01:15:55.923Z,8.48
2023-03-30T01:18:37.681Z,7.18
2023-03-30T01:21:37.741Z,5.60
2023-03-30T01:24:35.709Z,10.50
2023-03-30T01:27:19.936Z,8.57
2023-03-30T01:30:03.315Z,11.27
2023-03-30T01:32:57.192Z,8.90
2023-03-30T01:36:00.083Z,5.40
2023-03-30T01:41:33.442Z,6.25
2023-03-30T01:44:06.506Z,8.40
2023-03-30T01:46:40.420Z,6.13
2023-03-30T01:49:16.310Z,8.93
2023-03-30T01:51:50.836Z,14.65
2023-03-30T01:54:22.166Z,9.57
2023-03-30T01:56:56.136Z,8.35
2023-03-30T01:59:28.217Z,4.97
2023-03-30T02:02:00.569Z,6.57
2023-03-30T02:04:31.938Z,4.93
2023-03-30T02:07:04.105Z,8.18
2023-03-30T02:09:33.828Z,9.13
2023-03-30T02:12:04.919Z,4.63
2023-03-30T02:14:35.257Z,7.95
2023-03-30T02:17:07.481Z,8.25
2023-03-30T02:19:37.900Z,6.13
2023-03-30T02:22:06.287Z,5.78
2023-03-30T02:24:35.347Z,8.60
2023-03-30T02:27:05.264Z,8.27
2023-03-30T02:29:36.511Z,10.60
2023-03-30T02:32:05.277Z,4.80
2023-03-30T02:34:47.085Z,11.52
2023-03-30T02:37:30.159Z,10.95
2023-03-30T02:40:13.409Z,8.60
2023-03-30T02:43:03.389Z,4.40
2023-03-30T02:45:42.914Z,4.53
2023-03-30T02:48:30.830Z,2.80
2023-03-30T02:51:12.725Z,14.13
2023-03-30T02:53:45.452Z,7.63
2023-03-30T02:56:19.343Z,9.82
2023-03-30T03:01:26.881Z,6.53
2023-03-30T03:03:59.137Z,7.93
2023-03-30T03:06:28.590Z,5.50
2023-03-30T03:08:57.552Z,4.85
2023-03-30T03:11:25.849Z,12.00
2023-03-30T03:13:55.667Z,4.63
2023-03-30T03:16:23.811Z,4.70
2023-03-30T03:18:52.567Z,8.27
2023-03-30T03:21:20.408Z,6.85
2023-03-30T03:23:48.679Z,6.25
2023-03-30T03:26:16.431Z,5.07
2023-03-30T03:28:44.885Z,7.47
2023-03-30T03:31:14.229Z,6.10
2023-03-30T03:33:42.043Z,5.00
2023-03-30T03:36:12.146Z,7.63
2023-03-30T03:38:40.236Z,6.28
2023-03-30T03:41:08.305Z,5.10
2023-03-30T03:43:36.708Z,7.03
2023-03-30T03:46:04.582Z,5.80
2023-03-30T03:48:33.738Z,9.23
2023-03-30T03:51:01.721Z,9.70
2023-03-30T03:53:32.274Z,7.55
2023-03-30T03:56:00.282Z,6.10
2023-03-30T03:58:28.753Z,6.63
2023-03-30T04:01:00.058Z,6.07
2023-03-30T04:03:29.018Z,9.23
2023-03-30T04:06:02.181Z,7.78
2023-03-30T04:08:30.512Z,12.52
2023-03-30T04:11:06.088Z,8.70
2023-03-30T04:13:33.970Z,8.15
2023-03-30T04:16:01.863Z,7.05
2023-03-30T04:18:31.577Z,11.60
2023-03-30T04:21:03.118Z,7.75
2023-03-30T04:23:33.846Z,11.70
2023-03-30T04:26:02.658Z,9.98
2023-03-30T04:28:31.774Z,14.20
2023-03-30T04:31:00.581Z,7.95
2023-03-30T04:33:28.327Z,7.15
2023-03-30T04:35:56.152Z,16.42
2023-03-30T04:38:25.408Z,8.45
2023-03-30T04:40:53.752Z,14.25
2023-03-30T04:43:22.981Z,16.55
2023-03-30T04:45:51.884Z,18.17
2023-03-30T04:48:20.639Z,14.57
2023-03-30T04:50:50.363Z,18.95
2023-03-30T04:53:19.503Z,25.20
2023-03-30T04:55:51.720Z,18.17
2023-03-30T04:58:19.808Z,21.42
2023-03-30T05:00:47.617Z,14.00
2023-03-30T05:03:15.572Z,16.90
2023-03-30T05:05:43.414Z,12.77
2023-03-30T05:08:11.216Z,12.50
2023-03-30T05:10:39.022Z,22.88
2023-03-30T05:13:08.162Z,19.95
2023-03-30T05:15:35.939Z,20.95
2023-03-30T05:18:03.695Z,30.38
2023-03-30T05:20:31.611Z,19.45
2023-03-30T05:22:59.387Z,15.93
2023-03-30T05:25:27.219Z,19.92
2023-03-30T05:27:54.943Z,17.45
2023-03-30T05:30:24.046Z,22.38
2023-03-30T05:32:51.873Z,18.38
2023-03-30T05:35:19.803Z,24.35
2023-03-30T05:37:49.661Z,19.40
2023-03-30T05:40:18.266Z,21.83
2023-03-30T05:42:46.064Z,26.77
2023-03-30T05:45:14.030Z,22.35
2023-03-30T05:47:43.222Z,27.23
2023-03-30T05:50:11.926Z,23.10
2023-03-30T05:52:39.687Z,24.85
2023-03-30T05:55:07.934Z,26.45
2023-03-30T05:57:35.769Z,20.48
2023-03-30T06:00:06.729Z,24.30
2023-03-30T06:02:34.970Z,25.80
2023-03-30T06:05:04.589Z,35.40
2023-03-30T06:07:32.747Z,29.08
2023-03-30T06:10:01.566Z,21.98
2023-03-30T06:12:29.397Z,26.85
2023-03-30T06:14:57.451Z,27.90
2023-03-30T06:17:26.035Z,23.48
2023-03-30T06:19:54.408Z,29.95
2023-03-30T06:22:23.588Z,30.05
2023-03-30T06:24:51.475Z,34.95
2023-03-30T06:27:19.256Z,28.48
2023-03-30T06:29:47.110Z,23.95
2023-03-30T06:32:14.866Z,24.33
2023-03-30T06:34:42.658Z,27.52
2023-03-30T06:37:10.433Z,32.72
2023-03-30T06:39:39.701Z,22.08
2023-03-30T06:42:07.596Z,33.53
2023-03-30T06:44:35.343Z,26.42
2023-03-30T06:47:03.433Z,24.90
2023-03-30T06:49:31.402Z,27.77
2023-03-30T06:52:01.502Z,25.65
2023-03-30T06:54:31.006Z,29.95
2023-03-30T06:57:00.259Z,23.25
2023-03-30T06:59:28.258Z,24.77
2023-03-30T07:02:00.871Z,27.00
2023-03-30T07:04:29.119Z,26.15
2023-03-30T07:06:57.905Z,23.95
2023-03-30T07:09:28.738Z,32.88
2023-03-30T07:11:56.755Z,25.38
2023-03-30T07:14:25.990Z,21.92
2023-03-30T07:16:54.191Z,33.45
2023-03-30T07:19:21.951Z,27.10
2023-03-30T07:21:49.694Z,29.73
2023-03-30T07:24:17.606Z,25.25
2023-03-30T07:26:45.576Z,27.98
2023-03-30T07:29:15.419Z,19.35
2023-03-30T07:31:44.890Z,24.27
2023-03-30T07:34:12.754Z,20.83
2023-03-30T07:36:40.479Z,32.50
2023-03-30T07:39:08.825Z,30.75
2023-03-30T07:41:36.575Z,27.23
2023-03-30T07:44:04.368Z,29.92
2023-03-30T07:46:32.248Z,43.22
2023-03-30T07:49:01.611Z,22.02
2023-03-30T07:51:29.479Z,33.63
2023-03-30T07:53:58.504Z,26.30
2023-03-30T07:56:26.310Z,34.22
2023-03-30T07:58:54.176Z,29.77
2023-03-30T08:01:22.151Z,23.35
2023-03-30T08:03:50.010Z,29.27
2023-03-30T08:06:19.237Z,28.92
2023-03-30T08:08:47.872Z,23.10
2023-03-30T08:11:16.290Z,23.73
2023-03-30T08:13:44.555Z,26.15
2023-03-30T08:16:12.562Z,24.45
2023-03-30T08:18:41.680Z,24.70
2023-03-30T08:21:10.938Z,27.40
2023-03-30T08:23:40.162Z,28.45
2023-03-30T08:26:07.980Z,32.90
2023-03-30T08:28:36.681Z,36.50
2023-03-30T08:31:06.377Z,34.40
2023-03-30T08:33:34.878Z,31.60
2023-03-30T08:36:02.702Z,34.10
2023-03-30T08:38:30.638Z,30.92
2023-03-30T08:40:59.834Z,31.58
2023-03-30T08:43:42.512Z,32.38
2023-03-30T08:46:15.571Z,29.13
2023-03-30T08:48:44.572Z,40.92
2023-03-30T08:51:23.442Z,34.03
2023-03-30T08:53:56.054Z,32.65
2023-03-30T08:56:28.419Z,37.47
2023-03-30T08:59:05.442Z,34.75
2023-03-30T09:01:41.084Z,27.95
2023-03-30T09:04:18.942Z,32.60
2023-03-30T09:06:51.887Z,37.30
2023-03-30T09:09:22.101Z,36.23
2023-03-30T09:11:56.547Z,31.92
2023-03-30T09:14:33.222Z,46.97
2023-03-30T09:17:08.639Z,43.03
2023-03-30T09:19:41.474Z,38.47
2023-03-30T09:22:13.619Z,53.28
2023-03-30T09:24:42.105Z,30.45
2023-03-30T09:27:17.203Z,43.63
2023-03-30T09:29:49.008Z,44.03
2023-03-30T09:32:25.157Z,40.97
2023-03-30T09:35:00.311Z,45.55
2023-03-30T09:37:29.795Z,41.35
2023-03-30T09:39:59.050Z,42.10
2023-03-30T09:42:36.403Z,35.97
2023-03-30T09:45:12.771Z,49.13
2023-03-30T09:47:42.502Z,44.80
2023-03-30T09:50:13.104Z,33.17
2023-03-30T09:52:41.848Z,45.13
2023-03-30T09:55:28.622Z,36.17
2023-03-30T09:58:13.114Z,40.42
2023-03-30T10:00:41.114Z,44.38
2023-03-30T10:03:19.713Z,36.05
2023-03-30T10:06:03.029Z,45.58
2023-03-30T10:08:31.627Z,36.17
2023-03-30T10:11:01.162Z,43.05
2023-03-30T10:13:34.243Z,37.05
2023-03-30T10:16:07.286Z,29.38
2023-03-30T10:18:41.075Z,34.92
2023-03-30T10:21:18.802Z,34.90
2023-03-30T10:23:48.319Z,55.28
2023-03-30T10:26:19.279Z,29.67
2023-03-30T10:28:56.523Z,42.55
2023-03-30T10:31:28.071Z,43.08
2023-03-30T10:34:00.632Z,37.63
2023-03-30T10:36:31.841Z,30.23
2023-03-30T10:39:08.973Z,30.27
2023-03-30T10:41:40.819Z,34.38
2023-03-30T10:44:20.406Z,29.77
2023-03-30T10:46:51.049Z,31.13
2023-03-30T10:49:31.458Z,27.05
2023-03-30T10:52:09.476Z,33.80
2023-03-30T10:54:42.951Z,30.67
2023-03-30T10:57:14.308Z,44.13
2023-03-30T11:00:15.535Z,29.63
2023-03-30T11:02:52.703Z,36.28
2023-03-30T11:05:25.307Z,30.20
2023-03-30T11:07:57.072Z,29.25
2023-03-30T11:10:31.437Z,29.52
2023-03-30T11:13:03.461Z,23.33
2023-03-30T11:15:38.627Z,36.42
2023-03-30T11:18:14.500Z,28.50
2023-03-30T11:20:48.719Z,29.42
2023-03-30T11:23:22.849Z,35.30
2023-03-30T11:26:03.649Z,26.23
2023-03-30T11:28:47.479Z,26.42
2023-03-30T11:31:29.241Z,43.15
2023-03-30T11:34:04.275Z,32.25
2023-03-30T11:36:37.858Z,34.28
2023-03-30T11:39:28.824Z,35.80
2023-03-30T11:42:07.253Z,24.20
2023-03-30T11:44:35.097Z,38.30
2023-03-30T11:47:20.235Z,35.97
2023-03-30T11:50:03.043Z,35.80
2023-03-30T11:52:35.813Z,43.13
2023-03-30T11:55:34.779Z,47.80
2023-03-30T11:58:10.513Z,44.38
2023-03-30T12:00:50.422Z,26.88
2023-03-30T12:03:31.089Z,39.17
2023-03-30T12:06:07.437Z,37.15
2023-03-30T12:08:54.076Z,38.92
2023-03-30T12:11:31.843Z,29.80
2023-03-30T12:14:00.489Z,33.20
2023-03-30T12:16:38.913Z,28.67
2023-03-30T12:19:14.737Z,35.17
2023-03-30T12:21:49.055Z,43.10
2023-03-30T12:24:24.180Z,43.97
2023-03-30T12:27:04.669Z,33.28
2023-03-30T12:30:02.385Z,41.17
2023-03-30T12:32:32.052Z,32.10
2023-03-30T12:35:01.228Z,32.85
2023-03-30T12:37:34.802Z,34.60
2023-03-30T12:40:07.375Z,39.88
2023-03-30T12:42:39.619Z,31.42
2023-03-30T12:45:32.106Z,38.83
2023-03-30T12:48:17.729Z,31.90
2023-03-30T12:50:57.768Z,34.25
2023-03-30T12:54:03.787Z,27.98
2023-03-30T12:56:39.102Z,38.92
2023-03-30T12:59:31.137Z,35.17
2023-03-30T13:02:16.990Z,32.83
2023-03-30T13:04:48.935Z,38.15
2023-03-30T13:07:23.263Z,32.50
2023-03-30T13:09:57.005Z,41.50
2023-03-30T13:15:34.906Z,31.08
2023-03-30T13:18:04.356Z,43.13
2023-03-30T13:20:34.240Z,29.98
2023-03-30T13:23:32.180Z,27.80
2023-03-30T13:26:32.358Z,34.75
2023-03-30T13:29:10.301Z,28.55
2023-03-30T13:31:52.132Z,35.72
2023-03-30T13:34:30.260Z,32.50
2023-03-30T13:37:04.878Z,38.05
2023-03-30T13:39:41.792Z,29.90
2023-03-30T13:42:27.173Z,25.52
2023-03-30T13:45:03.054Z,34.63
2023-03-30T13:47:45.214Z,24.92
2023-03-30T13:50:24.865Z,33.78
2023-03-30T13:52:56.419Z,32.42
2023-03-30T13:55:32.525Z,25.25
2023-03-30T13:58:04.612Z,33.15
2023-03-30T14:00:40.086Z,29.55
2023-03-30T14:03:37.204Z,31.10
2023-03-30T14:06:08.930Z,33.10
2023-03-30T14:08:38.900Z,23.83
2023-03-30T14:11:15.628Z,23.10
2023-03-30T14:13:44.687Z,29.92
2023-03-30T14:16:18.567Z,29.55
2023-03-30T14:18:46.695Z,31.83
2023-03-30T14:21:18.563Z,36.40
2023-03-30T14:23:51.070Z,27.38
2023-03-30T14:26:24.501Z,22.80
2023-03-30T14:28:56.703Z,18.55
2023-03-30T14:31:26.998Z,16.73
2023-03-30T14:33:55.179Z,23.58
2023-03-30T14:36:23.473Z,24.98
2023-03-30T14:38:53.945Z,25.58
2023-03-30T14:41:27.489Z,31.38
2023-03-30T14:46:26.659Z,39.03
2023-03-30T14:48:55.179Z,31.90
2023-03-30T14:51:26.286Z,26.00
2023-03-30T14:53:55.872Z,25.13
2023-03-30T14:56:25.855Z,34.17
2023-03-30T14:58:55.691Z,27.60
2023-03-30T15:01:31.079Z,26.80
2023-03-30T15:04:01.202Z,30.90
2023-03-30T15:06:31.382Z,23.95
2023-03-30T15:09:03.330Z,28.30
2023-03-30T15:11:35.706Z,24.73
2023-03-30T15:14:09.785Z,26.58
2023-03-30T15:16:38.855Z,25.67
2023-03-30T15:19:11.716Z,25.13
2023-03-30T15:21:43.299Z,21.73
2023-03-30T15:24:17.606Z,26.27
2023-03-30T15:26:49.695Z,23.90
2023-03-30T15:29:19.585Z,21.52
2023-03-30T15:31:47.432Z,18.70
2023-03-30T15:34:17.443Z,20.00
2023-03-30T15:36:46.314Z,23.65
2023-03-30T15:39:22.041Z,25.60
2023-03-30T15:42:01.269Z,25.45
2023-03-30T15:44:29.855Z,31.60
2023-03-30T15:46:59.301Z,20.75
2023-03-30T15:49:31.765Z,23.23
2023-03-30T15:52:02.602Z,23.58
2023-03-30T15:54:35.031Z,25.85
2023-03-30T15:57:08.402Z,30.00
2023-03-30T15:59:39.908Z,21.60
2023-03-30T16:02:16.360Z,25.13
2023-03-30T16:04:44.301Z,22.85
2023-03-30T16:07:16.823Z,25.88
2023-03-30T16:09:44.603Z,30.92
2023-03-30T16:12:17.849Z,24.30
2023-03-30T16:14:46.704Z,23.38
2023-03-30T16:17:14.590Z,20.00
2023-03-30T16:19:42.872Z,32.00
2023-03-30T16:22:12.115Z,17.63
2023-03-30T16:24:40.907Z,21.02
2023-03-30T16:27:08.912Z,21.73
2023-03-30T16:29:38.133Z,19.88
2023-03-30T16:32:06.399Z,22.73
2023-03-30T16:34:34.149Z,26.15
2023-03-30T16:37:03.687Z,24.42
2023-03-30T16:39:31.800Z,15.80
2023-03-30T16:42:00.290Z,26.35
2023-03-30T16:44:28.153Z,21.90
2023-03-30T16:46:57.298Z,28.35
2023-03-30T16:49:26.579Z,22.35
2023-03-30T16:51:57.916Z,27.73
2023-03-30T16:56:57.002Z,25.27
2023-03-30T16:59:26.757Z,27.33
2023-03-30T17:01:54.522Z,18.48
2023-03-30T17:04:23.703Z,18.42
2023-03-30T17:06:51.631Z,17.60
2023-03-30T17:09:21.180Z,24.10
2023-03-30T17:11:49.836Z,34.60
2023-03-30T17:14:17.908Z,21.75
2023-03-30T17:16:45.771Z,26.63
2023-03-30T17:19:15.053Z,24.25
2023-03-30T17:21:45.885Z,27.35
2023-03-30T17:24:16.367Z,23.73
2023-03-30T17:26:44.361Z,27.25
2023-03-30T17:29:12.243Z,26.88
2023-03-30T17:31:45.335Z,31.00
2023-03-30T17:34:13.304Z,26.30
2023-03-30T17:36:41.088Z,23.65
2023-03-30T17:39:13.176Z,25.42
2023-03-30T17:41:41.289Z,24.02
2023-03-30T17:44:09.066Z,19.98
2023-03-30T17:46:36.911Z,21.65
2023-03-30T17:49:04.912Z,23.52
2023-03-30T17:51:32.725Z,23.88
2023-03-30T17:54:00.477Z,25.00
2023-03-30T17:56:29.569Z,25.13
2023-03-30T17:58:57.352Z,21.45
2023-03-30T18:01:25.150Z,27.92
2023-03-30T18:03:53.090Z,24.80
2023-03-30T18:06:20.850Z,28.20
2023-03-30T18:08:48.646Z,26.20
2023-03-30T18:11:16.394Z,27.05
2023-03-30T18:13:45.517Z,28.50
2023-03-30T18:16:13.877Z,23.15
2023-03-30T18:18:41.684Z,21.67
2023-03-30T18:21:11.047Z,30.23
2023-03-30T18:23:38.877Z,24.83
2023-03-30T18:26:11.262Z,20.08
2023-03-30T18:28:43.463Z,20.90
2023-03-30T18:31:13.427Z,22.05
2023-03-30T18:33:41.250Z,29.33
2023-03-30T18:36:12.960Z,24.08
2023-03-30T18:38:41.483Z,25.42
2023-03-30T18:41:11.470Z,28.63
2023-03-30T18:43:42.336Z,27.48
2023-03-30T18:46:13.842Z,29.02
2023-03-30T18:48:41.720Z,24.27
2023-03-30T18:51:12.114Z,31.90
2023-03-30T18:53:40.145Z,26.70
2023-03-30T18:56:10.365Z,34.53
2023-03-30T18:58:42.038Z,26.30
2023-03-30T19:01:12.920Z,26.48
2023-03-30T19:03:42.491Z,30.23
2023-03-30T19:06:13.727Z,33.40
2023-03-30T19:08:43.730Z,33.05
2023-03-30T19:11:16.281Z,34.17
2023-03-30T19:13:44.088Z,31.40
2023-03-30T19:16:11.856Z,34.35
2023-03-30T19:18:39.965Z,40.22
2023-03-30T19:21:10.809Z,32.85
2023-03-30T19:23:38.614Z,40.92
2023-03-30T19:26:07.445Z,36.88
2023-03-30T19:28:35.948Z,32.45
2023-03-30T19:31:10.217Z,40.88
2023-03-30T19:33:38.017Z,37.92
2023-03-30T19:36:07.237Z,31.42
2023-03-30T19:38:37.401Z,40.05
2023-03-30T19:41:06.775Z,27.17
2023-03-30T19:43:34.835Z,40.97
2023-03-30T19:46:02.790Z,31.90
2023-03-30T19:48:30.667Z,37.47
2023-03-30T19:50:58.500Z,43.85
2023-03-30T19:53:26.368Z,42.13
2023-03-30T19:55:55.607Z,35.85
2023-03-30T19:58:23.389Z,38.92
2023-03-30T20:00:51.253Z,36.05
2023-03-30T20:03:19.266Z,33.47
2023-03-30T20:05:51.155Z,35.85
2023-03-30T20:08:24.271Z,39.45
2023-03-30T20:10:53.149Z,36.80
2023-03-30T20:13:24.020Z,30.38
2023-03-30T20:15:56.098Z,34.75
2023-03-30T20:18:24.231Z,36.05
2023-03-30T20:20:52.651Z,33.80
2023-03-30T20:23:20.527Z,30.50
2023-03-30T20:25:49.370Z,28.15
2023-03-30T20:28:17.404Z,31.83
2023-03-30T20:30:47.629Z,31.75
2023-03-30T20:33:15.570Z,31.15
2023-03-30T20:35:43.552Z,23.50
2023-03-30T20:38:11.351Z,34.72
2023-03-30T20:40:39.130Z,28.05
2023-03-30T20:43:10.732Z,28.20
2023-03-30T20:45:46.128Z,32.90
2023-03-30T20:48:25.934Z,18.95
2023-03-30T20:50:54.269Z,21.70
2023-03-30T20:53:22.951Z,35.13
2023-03-30T20:55:51.122Z,25.60
2023-03-30T20:58:18.854Z,20.80
2023-03-30T21:00:47.444Z,28.25
2023-03-30T21:03:16.785Z,21.52
2023-03-30T21:05:44.742Z,24.80
2023-03-30T21:08:12.502Z,29.67
2023-03-30T21:10:43.009Z,27.35
2023-03-30T21:13:11.011Z,37.80
2023-03-30T21:15:38.756Z,24.77
2023-03-30T21:18:06.727Z,32.45
2023-03-30T21:20:35.916Z,29.00
2023-03-30T21:23:03.747Z,25.05
2023-03-30T21:25:32.113Z,34.20
2023-03-30T21:27:59.860Z,26.02
2023-03-30T21:30:28.940Z,26.10
2023-03-30T21:32:56.747Z,27.13
2023-03-30T21:35:24.974Z,26.25
2023-03-30T21:37:54.029Z,27.55
2023-03-30T21:40:22.337Z,24.55
2023-03-30T21:42:50.111Z,29.73
2023-03-30T21:45:18.262Z,19.02
2023-03-30T21:47:46.070Z,34.15
2023-03-30T21:50:13.830Z,27.40
2023-03-30T21:52:41.530Z,28.73
2023-03-30T21:55:10.827Z,27.17
2023-03-30T21:57:38.591Z,26.80
2023-03-30T22:00:10.183Z,22.35
2023-03-30T22:02:38.297Z,35.17
2023-03-30T22:05:06.935Z,28.95
2023-03-30T22:07:34.646Z,21.45
2023-03-30T22:10:02.412Z,27.27
2023-03-30T22:12:31.637Z,19.90
2023-03-30T22:14:59.359Z,26.75
2023-03-30T22:17:34.989Z,23.52
2023-03-30T22:20:02.870Z,26.90
2023-03-30T22:22:30.624Z,34.05
2023-03-30T22:24:58.318Z,37.63
2023-03-30T22:27:26.395Z,24.00
2023-03-30T22:29:55.501Z,30.85
2023-03-30T22:32:23.471Z,38.78
2023-03-30T22:34:51.307Z,22.42
2023-03-30T22:37:19.145Z,37.13
2023-03-30T22:39:46.955Z,24.73
2023-03-30T22:42:14.792Z,33.00
2023-03-30T22:44:42.738Z,23.48
2023-03-30T22:47:11.908Z,26.08
2023-03-30T22:49:40.154Z,32.17
2023-03-30T22:52:08.027Z,31.95
2023-03-30T22:54:35.787Z,31.48
2023-03-30T22:57:03.585Z,29.63
2023-03-30T22:59:31.655Z,28.33
2023-03-30T23:01:59.426Z,30.02
2023-03-30T23:04:29.007Z,24.50
2023-03-30T23:06:56.805Z,26.98
2023-03-30T23:09:24.537Z,22.15
2023-03-30T23:11:53.632Z,29.13
2023-03-30T23:14:21.805Z,23.35
2023-03-30T23:16:52.005Z,29.42
2023-03-30T23:19:19.874Z,27.52
2023-03-30T23:21:50.303Z,31.55
2023-03-30T23:24:18.057Z,22.90
2023-03-30T23:26:46.225Z,21.52
2023-03-30T23:29:14.050Z,23.88
2023-03-30T23:31:41.769Z,23.98
2023-03-30T23:34:12.940Z,20.52
2023-03-30T23:36:40.771Z,16.55
2023-03-30T23:39:10.275Z,20.25
2023-03-30T23:41:37.982Z,26.75
2023-03-30T23:44:06.116Z,21.17
2023-03-30T23:46:34.270Z,14.77
2023-03-30T23:49:03.300Z,24.95
2023-03-30T23:51:31.063Z,20.38
2023-03-30T23:54:06.113Z,24.02
2023-03-30T23:56:36.028Z,19.90
2023-03-30T23:59:04.513Z,19.65
